Time;durP1;ratioP1;P1;durP2;ratioP2;P2;SDS_P1;SDS_P2;PMS_P1;PMS_P2;Temp;Humidity;BMP_temperature;BMP_pressure;BME280_temperature;BME280_humidity;BME280_pressure;Samples;Min_cycle;Max_cycle;Signal;HPM_P1;HPM_P2
2022/02/08 00:02:02;;;;;;;7.13;3.17;;;;;;;-0.15;100.00;94286.28;5058473;28;20506;-43
2022/02/08 00:04:29;;;;;;;6.20;4.20;;;;;;;-0.10;100.00;94278.09;5057221;28;20049;-42
2022/02/08 00:06:57;;;;;;;5.13;3.47;;;;;;;-0.10;100.00;94288.31;5053119;28;20041;-41
2022/02/08 00:09:25;;;;;;;12.18;4.30;;;;;;;-0.14;100.00;94292.22;5056983;28;20132;-41
2022/02/08 00:11:52;;;;;;;5.38;3.97;;;;;;;-0.14;100.00;94287.09;5051821;28;20045;-42
2022/02/08 00:14:19;;;;;;;5.28;3.47;;;;;;;-0.20;100.00;94278.34;5058201;28;20064;-42
2022/02/08 00:16:46;;;;;;;5.32;2.83;;;;;;;-0.28;100.00;94275.91;5053307;28;20427;-42
2022/02/08 00:19:13;;;;;;;6.80;3.65;;;;;;;-0.14;100.00;94276.88;5050586;28;20106;-42
2022/02/08 00:21:40;;;;;;;7.85;4.18;;;;;;;-0.17;100.00;94272.88;5059807;28;20082;-42
2022/02/08 00:24:07;;;;;;;3.78;2.60;;;;;;;-0.23;100.00;94276.94;5052940;28;20529;-42
2022/02/08 00:26:34;;;;;;;7.15;3.13;;;;;;;-0.22;100.00;94260.63;5054984;28;20563;-43
2022/02/08 00:29:01;;;;;;;8.20;2.90;;;;;;;-0.16;100.00;94269.34;5052921;28;20548;-42
2022/02/08 00:31:27;;;;;;;7.93;3.53;;;;;;;-0.20;100.00;94271.47;5053644;28;20051;-42
2022/02/08 00:33:54;;;;;;;4.50;3.03;;;;;;;-0.18;100.00;94273.88;5056121;28;20504;-42
2022/02/08 00:36:22;;;;;;;4.05;2.85;;;;;;;-0.22;100.00;94291.34;5064895;28;20114;-43
2022/02/08 00:38:51;;;;;;;6.35;2.58;;;;;;;-0.28;100.00;94271.56;5064965;28;20048;-43
2022/02/08 00:41:22;;;;;;;3.50;2.75;;;;;;;-0.24;100.00;94283.03;5053964;28;20048;-45
2022/02/08 00:44:05;;;;;;;7.65;3.55;;;;;;;-0.26;100.00;94284.19;5058551;28;20041;-43
2022/02/08 00:49:38;;;;;;;3.78;3.00;;;;;;;-0.21;100.00;94298.03;5033828;28;20508;-42
2022/02/08 00:52:11;;;;;;;3.20;2.47;;;;;;;-0.26;100.00;94284.97;5057014;28;20192;-42
2022/02/08 00:54:37;;;;;;;6.95;5.93;;;;;;;-0.26;100.00;94300.31;5061924;28;20033;-45
2022/02/08 00:57:04;;;;;;;4.18;2.83;;;;;;;-0.26;100.00;94305.44;5062071;28;20044;-43
2022/02/08 00:59:31;;;;;;;2.75;2.08;;;;;;;-0.30;100.00;94299.09;5062029;28;20479;-42
2022/02/08 01:02:00;;;;;;;4.18;2.60;;;;;;;-0.26;100.00;94304.66;5057176;28;20049;-42
2022/02/08 01:04:27;;;;;;;3.72;2.80;;;;;;;-0.28;100.00;94297.16;5054253;28;20045;-43
2022/02/08 01:06:55;;;;;;;3.88;2.58;;;;;;;-0.25;100.00;94306.25;5061006;28;20048;-43
2022/02/08 01:09:36;;;;;;;4.28;3.35;;;;;;;-0.25;100.00;94307.03;5052626;28;20045;-42
2022/02/08 01:12:04;;;;;;;2.45;2.22;;;;;;;-0.33;100.00;94304.56;5059319;28;20515;-43
2022/02/08 01:14:37;;;;;;;4.55;3.42;;;;;;;-0.31;100.00;94307.72;5059239;28;20091;-45
2022/02/08 01:17:05;;;;;;;5.40;3.28;;;;;;;-0.30;100.00;94304.22;5057421;28;20041;-43
2022/02/08 01:19:32;;;;;;;4.88;2.75;;;;;;;-0.32;100.00;94297.69;5061554;28;20045;-45
2022/02/08 01:21:59;;;;;;;5.53;3.20;;;;;;;-0.37;100.00;94308.44;5058810;28;20048;-43
2022/02/08 01:24:26;;;;;;;4.30;3.30;;;;;;;-0.36;100.00;94304.94;5059785;28;20041;-44
2022/02/08 01:27:03;;;;;;;4.55;3.42;;;;;;;-0.36;100.00;94325.41;5055682;28;20083;-43
2022/02/08 01:35:21;;;;;;;5.63;3.45;;;;;;;-0.43;100.00;94324.53;5059678;28;20075;-44
2022/02/08 01:37:59;;;;;;;11.95;2.35;;;;;;;-0.43;100.00;94325.31;5053894;28;20498;-43
2022/02/08 01:40:50;;;;;;;4.03;1.65;;;;;;;-0.45;100.00;94321.31;5059375;28;20052;-43
2022/02/08 01:50:55;;;;;;;5.68;3.47;;;;;;;-0.43;100.00;94342.44;5072749;28;20502;-43
2022/02/08 01:53:23;;;;;;;3.50;2.20;;;;;;;-0.41;100.00;94337.94;5055649;28;20055;-43
2022/02/08 01:55:50;;;;;;;3.75;2.28;;;;;;;-0.42;100.00;94341.44;5056341;28;20094;-43
2022/02/08 01:58:21;;;;;;;3.97;2.38;;;;;;;-0.43;100.00;94340.66;5051972;28;20056;-42
2022/02/08 02:00:53;;;;;;;4.90;3.63;;;;;;;-0.42;100.00;94346.56;5058519;28;21592;-43
2022/02/08 02:03:21;;;;;;;4.32;2.72;;;;;;;-0.43;100.00;94345.78;5061241;28;20044;-48
2022/02/08 02:05:51;;;;;;;1.98;1.80;;;;;;;-0.45;100.00;94346.91;5061194;28;20469;-43
2022/02/08 02:08:20;;;;;;;3.92;2.42;;;;;;;-0.45;100.00;94352.84;5059186;28;20044;-43
2022/02/08 02:10:49;;;;;;;3.28;2.38;;;;;;;-0.50;100.00;94360.22;5057736;28;20513;-43
2022/02/08 02:15:49;;;;;;;6.28;4.15;;;;;;;-0.47;100.00;94364.19;5055018;28;20094;-43
2022/02/08 02:18:16;;;;;;;4.43;2.22;;;;;;;-0.50;100.00;94362.00;5060122;28;20048;-47
2022/02/08 02:20:44;;;;;;;4.15;2.55;;;;;;;-0.49;100.00;94355.91;5057210;28;20503;-45
2022/02/08 02:23:11;;;;;;;3.22;2.60;;;;;;;-0.55;100.00;94359.94;5056487;28;20048;-44
2022/02/08 02:25:38;;;;;;;7.20;3.67;;;;;;;-0.55;100.00;94366.84;5054955;28;20532;-44
2022/02/08 02:28:06;;;;;;;3.13;2.40;;;;;;;-0.65;100.00;94359.38;5052674;28;20041;-44
2022/02/08 02:30:34;;;;;;;5.75;3.25;;;;;;;-0.65;100.00;94357.66;5059006;28;20037;-44
2022/02/08 02:33:07;;;;;;;3.30;2.20;;;;;;;-0.60;100.00;94380.91;5053867;28;20041;-43
2022/02/08 02:35:35;;;;;;;3.03;2.47;;;;;;;-0.61;100.00;94384.47;5053161;28;20076;-47
2022/02/08 02:38:05;;;;;;;6.20;2.95;;;;;;;-0.66;100.00;94396.97;5060847;28;20071;-43
2022/02/08 02:40:36;;;;;;;5.80;3.20;;;;;;;-0.65;100.00;94393.47;5056037;28;20040;-44
2022/02/08 02:43:04;;;;;;;5.82;3.45;;;;;;;-0.65;100.00;94393.47;5056504;28;20041;-43
2022/02/08 02:45:33;;;;;;;6.88;4.03;;;;;;;-0.66;100.00;94402.09;5058899;28;20040;-44
2022/02/08 02:47:59;;;;;;;3.08;2.50;;;;;;;-0.64;100.00;94404.47;5058435;28;20063;-44
2022/02/08 02:50:33;;;;;;;4.93;2.03;;;;;;;-0.64;100.00;94404.47;5056405;28;20060;-43
2022/02/08 02:53:00;;;;;;;4.07;1.95;;;;;;;-0.65;100.00;94410.53;5058700;28;20438;-43
2022/02/08 02:55:32;;;;;;;4.82;3.00;;;;;;;-0.68;100.00;94409.13;5056934;28;20032;-48
2022/02/08 02:58:01;;;;;;;3.72;2.90;;;;;;;-0.68;100.00;94414.25;5055435;28;20094;-44
2022/02/08 03:03:11;;;;;;;8.60;3.17;;;;;;;-0.64;100.00;94430.84;5053397;28;20048;-49
2022/02/08 03:17:23;;;;;;;4.65;2.67;;;;;;;-0.64;100.00;94430.84;5050654;28;20041;-48
2022/02/08 03:19:45;;;;;;;3.33;1.75;;;;;;;-0.64;100.00;94414.72;5056995;28;20089;-44
2022/02/08 03:22:13;;;;;;;3.70;2.10;;;;;;;-0.65;100.00;94413.91;5051214;28;20057;-46
2022/02/08 03:24:40;;;;;;;3.65;1.98;;;;;;;-0.69;100.00;94412.66;5056905;28;20112;-44
2022/02/08 03:27:08;;;;;;;5.15;3.08;;;;;;;-0.66;100.00;94427.66;5056845;28;20048;-43
2022/02/08 03:29:35;;;;;;;4.05;2.05;;;;;;;-0.65;100.00;94449.72;5052605;28;20058;-44
2022/02/08 03:32:03;;;;;;;5.05;2.92;;;;;;;-0.67;100.00;94451.63;5059594;28;20056;-49
2022/02/08 03:34:30;;;;;;;3.88;2.88;;;;;;;-0.69;100.00;94443.34;5055164;28;20048;-45
2022/02/08 03:36:57;;;;;;;2.90;1.85;;;;;;;-0.64;100.00;94420.59;5054476;28;20140;-45
2022/02/08 03:39:34;;;;;;;4.00;1.95;;;;;;;-0.52;99.71;94426.13;5056404;28;20530;-44
2022/02/08 03:42:36;;;;;;;1.10;0.95;;;;;;;-0.40;96.35;94447.78;5053586;28;20052;-47
2022/02/08 03:45:11;;;;;;;2.92;1.25;;;;;;;-0.34;95.23;94453.97;5070820;28;20565;-48
2022/02/08 03:47:40;;;;;;;2.90;1.38;;;;;;;-0.31;96.33;94445.13;5054534;28;20082;-48
2022/02/08 03:50:08;;;;;;;5.20;2.60;;;;;;;-0.42;98.76;94434.34;5052666;28;20056;-46
2022/02/08 03:52:35;;;;;;;5.50;2.00;;;;;;;-0.37;98.49;94446.63;5058269;28;20064;-47
2022/02/08 03:55:03;;;;;;;3.60;1.85;;;;;;;-0.47;100.00;94451.19;5051133;28;20130;-44
2022/02/08 03:57:32;;;;;;;8.75;3.85;;;;;;;-0.51;100.00;94444.81;5057196;28;20059;-45
2022/02/08 04:00:04;;;;;;;0.60;0.40;;;;;;;-0.50;94.39;94446.44;5053481;28;20040;-49
2022/02/08 04:02:47;;;;;;;2.22;0.88;;;;;;;-0.34;89.83;94464.22;5063219;28;20083;-46
2022/02/08 04:05:25;;;;;;;1.95;1.05;;;;;;;-0.29;90.84;94459.38;5054839;28;20124;-45
2022/02/08 04:07:56;;;;;;;1.77;1.38;;;;;;;-0.24;89.00;94471.63;5054859;28;20151;-44
2022/02/08 04:10:26;;;;;;;2.47;1.60;;;;;;;-0.28;95.32;94460.94;5053841;28;20052;-45
2022/02/08 04:15:39;;;;;;;7.43;1.92;;;;;;;-0.42;91.55;94457.38;5058274;28;20043;-50
2022/02/08 04:34:49;;;;;;;1.55;1.15;;;;;;;-0.30;86.34;94523.53;5058012;28;20394;-45
2022/02/08 04:48:19;;;;;;;1.17;1.08;;;;;;;-0.40;87.86;94528.84;5055412;28;20044;-44
2022/02/08 04:50:49;;;;;;;1.65;0.90;;;;;;;-0.54;86.50;94511.66;5055301;28;20068;-46
2022/02/08 04:53:27;;;;;;;2.50;0.80;;;;;;;-0.36;87.10;94535.25;5056513;28;20418;-44
2022/02/08 04:56:04;;;;;;;1.00;0.65;;;;;;;-0.35;85.58;94547.06;5055121;28;20133;-43
2022/02/08 04:58:42;;;;;;;1.15;0.90;;;;;;;-0.35;86.29;94541.94;5055103;28;20056;-45
2022/02/08 05:01:22;;;;;;;3.40;1.33;;;;;;;-0.34;86.69;94564.00;5057434;28;20561;-44
2022/02/08 05:44:42;;;;;;;5.18;1.50;;;;;;;-0.41;87.45;94619.38;5056262;28;20068;-44
2022/02/08 05:47:10;;;;;;;8.52;2.78;;;;;;;-0.42;87.28;94636.47;5056971;28;20049;-44
2022/02/08 05:49:43;;;;;;;9.70;3.63;;;;;;;-0.35;88.08;94639.19;5060859;28;20127;-45
2022/02/08 05:54:41;;;;;;;7.03;2.15;;;;;;;-0.31;86.95;94655.78;5060633;28;20140;-46
2022/02/08 05:57:09;;;;;;;1.42;0.90;;;;;;;-0.28;86.70;94660.56;5057284;28;20053;-44
2022/02/08 05:59:36;;;;;;;1.67;0.98;;;;;;;-0.28;87.52;94665.69;5061755;28;20045;-48
2022/02/08 06:02:04;;;;;;;8.88;2.13;;;;;;;-0.27;86.36;94685.22;5057040;28;20048;-46
2022/02/08 06:04:47;;;;;;;7.50;3.05;;;;;;;-0.25;86.97;94690.97;5057782;28;20043;-45
2022/02/08 06:07:19;;;;;;;2.80;1.33;;;;;;;-0.22;87.35;94693.19;5060385;28;20048;-45
2022/02/08 06:09:49;;;;;;;8.45;3.08;;;;;;;-0.24;85.91;94707.91;5059309;28;21917;-43
2022/02/08 06:12:15;;;;;;;5.05;1.77;;;;;;;-0.16;86.05;94719.06;5055625;28;20510;-45
2022/02/08 06:14:56;;;;;;;3.53;2.40;;;;;;;-0.14;85.55;94724.84;5052797;28;20048;-46
2022/02/08 06:17:27;;;;;;;2.78;1.73;;;;;;;-0.12;86.46;94733.16;5054727;28;20060;-44
2022/02/08 06:19:56;;;;;;;1.55;1.13;;;;;;;-0.22;86.02;94716.25;5053026;28;20462;-45
2022/02/08 06:22:23;;;;;;;8.65;2.97;;;;;;;-0.17;86.50;94727.72;5061506;28;20041;-48
2022/02/08 06:24:51;;;;;;;3.88;2.00;;;;;;;-0.14;86.92;94732.53;5054081;28;20040;-49
2022/02/08 06:27:18;;;;;;;2.38;1.35;;;;;;;-0.24;86.75;94730.94;5058275;28;20044;-45
2022/02/08 06:29:45;;;;;;;3.13;1.60;;;;;;;-0.17;86.70;94732.84;5057895;28;20052;-44
2022/02/08 06:32:11;;;;;;;2.83;1.73;;;;;;;-0.15;87.15;94731.72;5060101;28;20061;-44
2022/02/08 06:34:38;;;;;;;3.60;1.55;;;;;;;-0.13;85.71;94739.22;5061668;28;20520;-47
2022/02/08 06:37:11;;;;;;;4.90;2.05;;;;;;;-0.07;86.00;94753.94;5060118;28;20465;-48
2022/02/08 06:39:38;;;;;;;7.22;2.13;;;;;;;-0.12;86.63;94751.06;5054600;28;20079;-43
2022/02/08 06:42:07;;;;;;;1.42;0.85;;;;;;;-0.10;86.33;94764.50;5059350;28;20115;-45
2022/02/08 06:44:34;;;;;;;6.13;2.47;;;;;;;-0.13;85.77;94759.72;5053399;28;20067;-46
2022/02/08 06:47:02;;;;;;;4.88;1.95;;;;;;;-0.12;85.31;94776.69;5053508;28;20033;-46
2022/02/08 06:49:28;;;;;;;17.08;6.82;;;;;;;-0.13;86.31;94775.84;5054308;28;20041;-49
2022/02/08 06:51:55;;;;;;;27.17;8.57;;;;;;;-0.14;85.14;94781.16;5052535;28;20044;-49
2022/02/08 06:54:22;;;;;;;9.70;5.63;;;;;;;-0.12;86.38;94786.91;5059382;28;20044;-49
2022/02/08 06:56:49;;;;;;;11.90;5.40;;;;;;;-0.09;85.53;94797.63;5053637;28;20051;-45
2022/02/08 06:59:18;;;;;;;4.15;2.25;;;;;;;-0.03;84.51;94808.97;5055537;28;20061;-45
2022/02/08 07:01:46;;;;;;;6.05;2.47;;;;;;;-0.08;85.96;94801.75;5061946;28;20051;-44
2022/02/08 07:04:16;;;;;;;5.43;3.15;;;;;;;-0.05;86.68;94813.44;5057014;28;20044;-45
2022/02/08 07:06:45;;;;;;;8.52;1.77;;;;;;;-0.02;85.50;94813.09;5056711;28;20041;-47
2022/02/08 07:09:14;;;;;;;2.05;1.25;;;;;;;0.02;84.34;94819.50;5058744;28;20047;-45
2022/02/08 07:11:45;;;;;;;4.70;1.85;;;;;;;0.08;84.03;94818.84;5052210;28;20048;-45
2022/02/08 07:14:12;;;;;;;9.77;2.78;;;;;;;0.09;83.86;94824.75;5060080;28;20041;-45
2022/02/08 07:16:38;;;;;;;7.03;2.90;;;;;;;0.03;83.37;94821.09;5058628;28;20090;-44
2022/02/08 07:19:05;;;;;;;9.38;4.65;;;;;;;0.08;83.56;94834.19;5051214;28;20060;-45
2022/02/08 07:21:32;;;;;;;7.57;3.65;;;;;;;0.09;83.60;94833.25;5056171;28;20067;-45
2022/02/08 07:23:59;;;;;;;14.35;5.72;;;;;;;0.16;83.51;94836.75;5059862;28;20098;-46
2022/02/08 07:26:25;;;;;;;11.20;4.95;;;;;;;0.16;84.47;94841.88;5055730;28;20530;-46
2022/02/08 07:28:52;;;;;;;4.88;3.35;;;;;;;0.13;83.11;94847.31;5055685;28;20102;-47
2022/02/08 07:31:22;;;;;;;5.70;3.15;;;;;;;0.17;83.63;94848.56;5059334;28;20048;-47
2022/02/08 07:34:01;;;;;;;6.55;2.90;;;;;;;0.27;82.93;94853.50;5059905;28;20498;-48
2022/02/08 07:36:55;;;;;;;1.83;1.30;;;;;;;0.23;82.02;94856.56;5051673;28;20072;-47
2022/02/08 07:39:26;;;;;;;6.45;3.13;;;;;;;0.29;83.09;94850.75;5049451;28;20048;-49
2022/02/08 07:41:52;;;;;;;13.45;5.18;;;;;;;0.27;84.33;94857.81;5053985;28;20114;-44
2022/02/08 07:44:19;;;;;;;21.95;9.60;;;;;;;0.33;84.13;94859.72;5054746;28;20110;-48
2022/02/08 07:46:55;;;;;;;6.85;3.33;;;;;;;0.37;83.12;94848.19;5049072;28;20045;-46
2022/02/08 07:49:22;;;;;;;5.03;2.78;;;;;;;0.30;83.00;94842.13;5051534;28;20529;-44
2022/02/08 07:51:49;;;;;;;5.95;2.50;;;;;;;0.34;83.55;94856.19;5057677;28;20057;-45
2022/02/08 07:54:15;;;;;;;3.42;1.63;;;;;;;0.40;82.25;94847.84;5059084;28;20552;-47
2022/02/08 07:56:48;;;;;;;4.85;2.58;;;;;;;0.46;80.82;94852.28;5054044;28;20426;-45
2022/02/08 07:59:15;;;;;;;2.33;1.08;;;;;;;0.45;79.85;94852.47;5052780;28;20064;-46
2022/02/08 08:01:42;;;;;;;2.75;1.85;;;;;;;0.47;80.99;94869.28;5053882;28;20063;-45
2022/02/08 08:04:09;;;;;;;6.00;2.85;;;;;;;0.53;80.89;94878.84;5057339;28;20056;-46
2022/02/08 08:06:36;;;;;;;11.55;2.45;;;;;;;0.55;81.01;94882.03;5055780;28;21647;-47
2022/02/08 08:09:04;;;;;;;15.65;6.00;;;;;;;0.56;82.21;94878.53;5059271;28;20052;-44
2022/02/08 08:11:40;;;;;;;4.18;2.05;;;;;;;0.60;78.40;94883.31;5059312;28;20040;-44
2022/02/08 08:14:10;;;;;;;3.10;2.05;;;;;;;0.64;79.37;94895.63;5056210;28;20048;-46
2022/02/08 08:19:19;;;;;;;3.47;1.60;;;;;;;0.61;79.30;94915.66;5057393;28;20041;-45
2022/02/08 08:21:47;;;;;;;1.42;0.77;;;;;;;0.61;78.90;94925.91;5054346;28;20037;-45
2022/02/08 08:24:14;;;;;;;2.13;1.70;;;;;;;0.54;78.21;94921.47;5055930;28;20051;-45
2022/02/08 08:26:42;;;;;;;2.15;1.90;;;;;;;0.60;79.36;94934.59;5050715;28;20044;-45
2022/02/08 08:29:09;;;;;;;14.70;5.20;;;;;;;0.69;79.44;94936.16;5052222;28;20044;-46
2022/02/08 08:31:36;;;;;;;11.60;4.78;;;;;;;0.80;80.95;94940.91;5054989;28;20040;-45
2022/02/08 08:34:08;;;;;;;2.65;1.67;;;;;;;0.83;79.30;94940.56;5052197;28;20056;-44
2022/02/08 08:36:34;;;;;;;6.95;2.88;;;;;;;0.86;79.45;94935.09;5054850;28;20075;-45
2022/02/08 08:39:04;;;;;;;8.30;3.15;;;;;;;0.83;78.72;94950.81;5052922;28;20062;-45
2022/02/08 08:41:44;;;;;;;9.40;5.13;;;;;;;0.87;80.50;94957.22;5055912;28;20383;-44
2022/02/08 08:51:58;;;;;;;17.65;5.30;;;;;;;0.88;80.34;94973.38;5054404;28;20425;-45
2022/02/08 08:54:27;;;;;;;5.50;2.95;;;;;;;0.90;79.07;94972.28;5060445;28;20077;-46
2022/02/08 08:56:54;;;;;;;9.70;3.55;;;;;;;0.95;79.03;94970.00;5060572;28;20099;-47
2022/02/08 08:59:22;;;;;;;16.10;6.05;;;;;;;0.98;77.68;94984.25;5061042;28;20040;-49
2022/02/08 09:01:49;;;;;;;13.90;5.88;;;;;;;1.10;79.95;94982.13;5058459;28;20048;-45
2022/02/08 09:04:18;;;;;;;6.47;2.78;;;;;;;1.17;78.55;94985.63;5054483;28;20390;-46
2022/02/08 09:06:50;;;;;;;10.45;3.42;;;;;;;1.24;78.40;94989.09;5064282;28;20037;-47
2022/02/08 09:09:21;;;;;;;8.70;4.13;;;;;;;1.27;76.66;94991.31;5059087;28;20044;-44
2022/02/08 09:12:51;;;;;;;2.85;2.00;;;;;;;1.15;75.41;94977.25;5058600;28;20057;-47
2022/02/08 09:30:13;;;;;;;0.90;0.68;;;;;;;1.28;71.28;94995.50;5056822;28;20057;-44
2022/02/08 09:32:51;;;;;;;4.32;1.70;;;;;;;1.39;69.17;94996.06;5055280;28;20060;-45
2022/02/08 09:35:19;;;;;;;2.55;1.40;;;;;;;1.55;69.91;94990.84;5058083;28;20044;-44
2022/02/08 09:37:47;;;;;;;33.92;13.90;;;;;;;1.76;71.12;94991.97;5054900;28;20502;-51
2022/02/08 09:40:19;;;;;;;13.95;3.13;;;;;;;1.87;68.53;94991.56;5056236;28;20053;-48
2022/02/08 09:42:51;;;;;;;2.70;1.67;;;;;;;2.06;67.12;94983.38;5057374;28;20041;-45
2022/02/08 09:45:20;;;;;;;3.38;1.67;;;;;;;2.23;67.17;94993.50;5054565;28;20087;-46
2022/02/08 09:48:00;;;;;;;7.30;2.03;;;;;;;2.33;66.70;94994.06;5059322;28;20040;-46
2022/02/08 09:50:32;;;;;;;9.82;3.00;;;;;;;2.32;66.88;94991.66;5057472;28;20048;-46
2022/02/08 09:53:01;;;;;;;10.13;2.65;;;;;;;2.41;66.68;94991.44;5055763;28;20091;-48
2022/02/08 09:55:36;;;;;;;5.07;2.58;;;;;;;2.44;66.64;94996.19;5058518;28;20044;-48
2022/02/08 09:58:04;;;;;;;10.13;5.03;;;;;;;2.53;67.97;94989.19;5054848;28;20051;-49
2022/02/08 10:00:32;;;;;;;4.15;2.15;;;;;;;2.63;66.69;94994.09;5056980;28;20048;-45
2022/02/08 10:03:09;;;;;;;2.55;1.15;;;;;;;2.48;65.06;94997.47;5058506;28;20040;-45
2022/02/08 10:05:50;;;;;;;1.58;1.20;;;;;;;2.38;65.90;94996.91;5058793;28;20036;-45
2022/02/08 10:08:18;;;;;;;5.20;1.30;;;;;;;2.40;63.61;94994.97;5056145;28;20051;-45
2022/02/08 10:10:46;;;;;;;32.70;13.55;;;;;;;2.44;67.96;94991.06;5063356;28;20123;-44
2022/02/08 10:13:37;;;;;;;5.38;2.22;;;;;;;2.70;67.51;94999.31;5058108;28;20090;-45
2022/02/08 10:24:08;;;;;;;3.90;1.88;;;;;;;2.63;68.06;94991.53;5058682;28;20045;-43
2022/02/08 10:32:30;;;;;;;7.82;2.40;;;;;;;2.89;65.59;95003.13;5051880;28;20079;-48
2022/02/08 10:37:50;;;;;;;6.65;2.13;;;;;;;2.83;68.53;94995.16;5060959;28;20041;-44
2022/02/08 10:40:19;;;;;;;4.03;2.67;;;;;;;2.76;67.81;95001.97;5055182;28;20048;-44
2022/02/08 10:43:01;;;;;;;2.88;1.15;;;;;;;2.87;66.76;95006.66;5052279;28;20052;-45
2022/02/08 10:45:33;;;;;;;1.80;1.23;;;;;;;2.84;66.88;95011.38;5050990;28;20551;-46
2022/02/08 10:48:03;;;;;;;0.90;0.80;;;;;;;2.83;67.24;95002.06;5054085;28;20037;-45
2022/02/08 10:50:33;;;;;;;4.85;2.17;;;;;;;2.80;68.57;95007.56;5059883;28;20072;-48
2022/02/08 10:53:02;;;;;;;4.32;2.10;;;;;;;2.85;68.91;95002.69;5056621;28;20044;-44
2022/02/08 10:55:38;;;;;;;2.70;1.02;;;;;;;2.87;67.18;95001.53;5056785;28;20087;-44
2022/02/08 10:58:19;;;;;;;2.58;1.05;;;;;;;2.71;68.36;95011.22;5056426;28;20454;-46
2022/02/08 11:03:25;;;;;;;5.25;1.70;;;;;;;2.54;66.80;95010.56;5054814;28;20045;-45
2022/02/08 11:06:06;;;;;;;4.10;1.83;;;;;;;2.53;67.23;95006.41;5055975;28;20525;-46
2022/02/08 11:22:51;;;;;;;0.68;0.45;;;;;;;3.24;64.71;95017.81;5055422;28;20493;-44
2022/02/08 11:25:27;;;;;;;7.10;2.33;;;;;;;3.24;65.34;95009.28;5054018;28;20056;-46
2022/02/08 11:28:16;;;;;;;6.10;2.45;;;;;;;3.00;64.67;95020.69;5060274;28;20111;-44
2022/02/08 11:34:00;;;;;;;3.47;1.27;;;;;;;2.85;64.18;95018.91;5057247;28;20049;-45
2022/02/08 12:30:23;;;;;;;5.63;2.42;;;;;;;2.93;60.97;95030.09;5056418;28;20049;-45
2022/02/08 12:57:11;;;;;;;4.45;2.97;;;;;;;2.38;64.28;95056.03;5054112;28;20052;-45
2022/02/08 12:59:54;;;;;;;6.88;2.70;;;;;;;2.40;64.58;95056.66;5053589;28;20040;-46
2022/02/08 14:01:40;;;;;;;4.80;2.35;;;;;;;3.11;62.07;95089.72;5057751;28;20048;-46
2022/02/08 14:05:58;;;;;;;7.35;2.80;;;;;;;3.57;57.34;95130.69;5052898;28;20048;-46
2022/02/08 14:08:39;;;;;;;2.22;1.08;;;;;;;3.71;52.52;95125.69;5053244;28;20064;-44
2022/02/08 14:13:53;;;;;;;2.78;1.65;;;;;;;3.67;54.18;95139.94;5056644;28;20061;-45
2022/02/08 14:19:23;;;;;;;5.72;2.75;;;;;;;3.25;55.05;95148.13;5052134;28;20049;-46
2022/02/08 14:25:15;;;;;;;5.53;2.58;;;;;;;3.18;54.87;95156.72;5033693;28;20072;-45
2022/02/08 14:30:42;;;;;;;;;;;;;;;3.10;54.06;95165.34;5057008;28;20063;-44
2022/02/08 14:35:59;;;;;;;6.30;2.22;;;;;;;2.96;55.93;95166.13;5059002;28;20064;-43
2022/02/08 14:58:01;;;;;;;2.55;1.50;;;;;;;2.81;52.62;95208.03;5057667;28;19924;-44
2022/02/08 15:06:09;;;;;;;27.15;12.00;;;;;;;2.78;53.65;95221.25;5052527;28;20071;-46
2022/02/08 15:08:40;;;;;;;7.65;3.25;;;;;;;2.67;53.49;95224.22;5051896;28;20551;-47
2022/02/08 15:11:10;;;;;;;6.53;2.67;;;;;;;2.70;52.47;95225.66;5059343;28;20127;-44
2022/02/08 15:13:43;;;;;;;12.57;5.65;;;;;;;2.74;52.31;95242.31;5053752;28;20044;-47
2022/02/08 15:16:22;;;;;;;6.35;3.45;;;;;;;2.65;54.30;95239.03;5052285;28;20056;-47
2022/02/08 15:18:50;;;;;;;4.50;3.25;;;;;;;2.53;55.98;95240.41;5052982;28;20044;-45
2022/02/08 15:21:22;;;;;;;8.30;3.65;;;;;;;2.46;55.66;95251.34;5055365;28;20041;-46
2022/02/08 15:23:50;;;;;;;8.95;4.85;;;;;;;2.42;56.03;95250.09;5053180;28;20506;-47
2022/02/08 15:26:17;;;;;;;5.55;3.25;;;;;;;2.42;55.26;95250.09;5059150;28;20106;-44
2022/02/08 15:28:45;;;;;;;4.72;2.78;;;;;;;2.37;56.57;95256.72;5057088;28;20418;-45
2022/02/08 15:31:12;;;;;;;6.57;3.20;;;;;;;2.35;55.79;95259.44;5051606;28;20044;-44
2022/02/08 15:33:39;;;;;;;5.78;1.90;;;;;;;2.36;55.07;95270.53;5057159;28;20048;-44
2022/02/08 15:36:06;;;;;;;4.38;2.25;;;;;;;2.37;55.52;95278.06;5057522;28;20488;-44
2022/02/08 15:38:36;;;;;;;2.88;1.50;;;;;;;2.33;55.73;95281.94;5055506;28;20064;-44
2022/02/08 15:41:03;;;;;;;5.07;2.30;;;;;;;2.33;56.00;95287.09;5056565;28;20534;-46
2022/02/08 15:43:30;;;;;;;7.28;3.10;;;;;;;2.34;55.29;95293.84;5056110;28;20040;-46
2022/02/08 15:46:05;;;;;;;8.73;4.47;;;;;;;2.37;55.60;95298.63;5059908;28;20044;-45
2022/02/08 15:48:33;;;;;;;9.30;4.68;;;;;;;2.39;55.89;95301.03;5056278;28;20449;-49
2022/02/08 15:51:06;;;;;;;7.65;3.35;;;;;;;2.37;56.11;95308.91;5055490;28;20040;-45
2022/02/08 15:53:50;;;;;;;2.47;1.75;;;;;;;2.34;52.73;95293.03;5058217;28;20530;-47
2022/02/08 15:57:11;;;;;;;14.30;4.32;;;;;;;2.38;54.10;95315.69;5055088;28;20037;-45
2022/02/08 16:17:31;;;;;;;15.40;5.40;;;;;;;2.40;55.52;95354.88;5060626;28;20049;-44
2022/02/08 16:25:01;;;;;;;3.25;2.28;;;;;;;2.28;55.94;95376.75;5057349;28;20110;-46
2022/02/08 16:27:40;;;;;;;5.60;2.85;;;;;;;2.21;54.48;95373.25;5053079;28;20048;-46
2022/02/08 16:52:43;;;;;;;4.13;1.58;;;;;;;2.01;57.17;95416.50;5018724;28;20056;-44
2022/02/08 16:58:07;;;;;;;5.78;2.70;;;;;;;1.95;57.40;95428.22;5037522;28;20456;-45
2022/02/08 17:00:36;;;;;;;2.97;1.90;;;;;;;1.96;57.93;95440.09;5048857;28;20098;-45
2022/02/08 17:03:16;;;;;;;3.47;1.00;;;;;;;1.89;56.97;95439.97;5050843;28;20052;-45
2022/02/08 17:05:43;;;;;;;2.20;1.80;;;;;;;1.83;56.37;95429.53;5052442;28;20521;-44
2022/02/08 17:08:13;;;;;;;4.80;2.03;;;;;;;1.81;57.74;95436.59;5052850;28;20418;-43
2022/02/08 17:10:41;;;;;;;6.57;2.28;;;;;;;1.82;59.14;95448.44;5053599;28;20376;-47
2022/02/08 17:13:18;;;;;;;8.82;3.88;;;;;;;1.80;60.22;95450.38;5051103;28;20040;-44
2022/02/08 17:16:01;;;;;;;17.83;6.60;;;;;;;1.74;60.65;95454.41;5052301;28;20074;-47
2022/02/08 17:36:02;;;;;;;2.78;2.17;;;;;;;1.28;61.16;95477.94;5055172;28;19928;-47
2022/02/08 17:48:12;;;;;;;18.35;5.05;;;;;;;1.12;63.35;95488.16;5056868;28;20413;-44
2022/02/08 17:50:39;;;;;;;4.82;1.67;;;;;;;1.11;63.21;95491.69;5061410;28;20048;-49
2022/02/08 17:53:06;;;;;;;14.20;4.53;;;;;;;1.11;64.56;95499.38;5058038;28;20036;-46
2022/02/08 17:55:33;;;;;;;11.50;4.32;;;;;;;1.08;64.39;95497.94;5061899;28;20048;-47
2022/02/08 17:58:02;;;;;;;7.75;3.35;;;;;;;1.03;65.47;95494.22;5056399;28;20048;-46
2022/02/08 18:00:32;;;;;;;6.28;3.22;;;;;;;0.97;66.19;95499.97;5055907;28;20090;-45
2022/02/08 18:03:04;;;;;;;11.10;5.10;;;;;;;0.95;66.64;95513.75;5050727;28;20045;-48
2022/02/08 18:05:31;;;;;;;11.63;4.35;;;;;;;0.91;67.33;95507.31;5056217;28;20119;-48
2022/02/08 18:07:58;;;;;;;8.20;4.82;;;;;;;0.84;67.54;95521.72;5052974;28;20045;-49
2022/02/08 18:10:31;;;;;;;9.40;3.85;;;;;;;0.80;67.79;95520.41;5057034;28;20405;-44
2022/02/08 18:12:59;;;;;;;11.00;5.15;;;;;;;0.83;68.57;95530.38;5056164;28;20936;-50
2022/02/08 18:15:27;;;;;;;3.90;2.80;;;;;;;0.80;67.77;95530.66;5053203;28;20114;-47
2022/02/08 18:18:01;;;;;;;11.32;4.93;;;;;;;0.79;68.54;95539.31;5059029;28;20051;-45
2022/02/08 18:28:34;;;;;;;6.65;3.58;;;;;;;0.63;68.82;95523.84;5054583;28;20127;-46
2022/02/08 18:55:31;;;;;;;14.52;6.07;;;;;;;0.51;69.33;95542.06;5056441;28;20040;-50
2022/02/08 19:19:57;;;;;;;4.80;2.50;;;;;;;0.59;69.62;95568.69;5057607;28;20146;-46
2022/02/08 19:22:26;;;;;;;3.55;2.22;;;;;;;0.58;70.41;95578.16;5053654;28;20102;-46
2022/02/08 19:24:53;;;;;;;5.95;2.90;;;;;;;0.52;71.53;95573.59;5055749;28;20053;-45
2022/02/08 19:27:20;;;;;;;9.88;4.13;;;;;;;0.59;71.17;95578.94;5051442;28;20049;-46
2022/02/08 19:29:47;;;;;;;3.90;2.63;;;;;;;0.54;70.47;95587.91;5053780;28;20044;-50
2022/02/08 19:32:14;;;;;;;5.63;3.00;;;;;;;0.61;70.52;95597.53;5052471;28;20047;-46
2022/02/08 19:34:47;;;;;;;12.43;4.68;;;;;;;0.63;70.67;95600.75;5054666;28;20494;-45
2022/02/08 19:37:17;;;;;;;5.97;2.33;;;;;;;0.65;70.45;95598.84;5056768;28;20071;-44
2022/02/08 19:39:46;;;;;;;10.90;4.28;;;;;;;0.69;69.20;95595.03;5050342;28;20047;-45
2022/02/08 19:42:14;;;;;;;8.02;4.50;;;;;;;0.74;69.65;95598.75;5050822;28;20471;-46
2022/02/08 19:44:42;;;;;;;7.68;5.53;;;;;;;0.83;69.82;95602.19;5052580;28;20056;-47
2022/02/08 19:47:09;;;;;;;6.65;3.40;;;;;;;0.74;70.35;95593.63;5052800;28;20113;-44
2022/02/08 19:49:36;;;;;;;5.18;3.20;;;;;;;0.79;70.78;95600.84;5053479;28;20067;-46